sensor_id;sensor_type;location;lat;lon;timestamp;P1;durP1;ratioP1;P2;durP2;ratioP2
35326;SDS011;21436;52.348;20.928;2024-02-16T00:00:45;41.85;;;20.95;;
35326;SDS011;21436;52.348;20.928;2024-02-16T00:03:34;38.75;;;19.23;;
35326;SDS011;21436;52.348;20.928;2024-02-16T00:06:02;38.28;;;18.73;;
35326;SDS011;21436;52.348;20.928;2024-02-16T00:08:30;35.42;;;18.30;;
35326;SDS011;21436;52.348;20.928;2024-02-16T00:10:58;37.05;;;17.10;;
35326;SDS011;21436;52.348;20.928;2024-02-16T00:13:26;32.42;;;16.42;;
35326;SDS011;21436;52.348;20.928;2024-02-16T00:15:55;33.70;;;17.20;;
35326;SDS011;21436;52.348;20.928;2024-02-16T00:18:23;35.92;;;17.33;;
35326;SDS011;21436;52.348;20.928;2024-02-16T00:20:51;33.13;;;16.50;;
35326;SDS011;21436;52.348;20.928;2024-02-16T00:23:19;37.10;;;17.48;;
35326;SDS011;21436;52.348;20.928;2024-02-16T00:25:49;37.08;;;16.52;;
35326;SDS011;21436;52.348;20.928;2024-02-16T00:28:17;31.17;;;16.65;;
35326;SDS011;21436;52.348;20.928;2024-02-16T00:30:45;33.05;;;17.30;;
35326;SDS011;21436;52.348;20.928;2024-02-16T00:33:14;33.80;;;16.83;;
35326;SDS011;21436;52.348;20.928;2024-02-16T00:35:42;29.00;;;14.15;;
35326;SDS011;21436;52.348;20.928;2024-02-16T00:38:10;31.25;;;15.23;;
35326;SDS011;21436;52.348;20.928;2024-02-16T00:40:38;31.25;;;15.35;;
35326;SDS011;21436;52.348;20.928;2024-02-16T00:45:38;30.30;;;15.95;;
35326;SDS011;21436;52.348;20.928;2024-02-16T00:48:06;27.48;;;14.32;;
35326;SDS011;21436;52.348;20.928;2024-02-16T00:50:34;28.15;;;14.63;;
35326;SDS011;21436;52.348;20.928;2024-02-16T00:53:03;32.30;;;14.48;;
35326;SDS011;21436;52.348;20.928;2024-02-16T00:55:31;27.58;;;13.93;;
35326;SDS011;21436;52.348;20.928;2024-02-16T00:57:59;26.65;;;14.50;;
35326;SDS011;21436;52.348;20.928;2024-02-16T01:00:27;27.33;;;14.13;;
35326;SDS011;21436;52.348;20.928;2024-02-16T01:02:55;29.08;;;14.07;;
35326;SDS011;21436;52.348;20.928;2024-02-16T01:05:23;25.75;;;14.27;;
35326;SDS011;21436;52.348;20.928;2024-02-16T01:07:51;28.98;;;13.65;;
35326;SDS011;21436;52.348;20.928;2024-02-16T01:10:19;25.02;;;13.13;;
35326;SDS011;21436;52.348;20.928;2024-02-16T01:12:47;27.90;;;14.13;;
35326;SDS011;21436;52.348;20.928;2024-02-16T01:15:15;21.42;;;11.68;;
35326;SDS011;21436;52.348;20.928;2024-02-16T01:17:43;17.80;;;11.40;;
35326;SDS011;21436;52.348;20.928;2024-02-16T01:20:12;26.52;;;12.60;;
35326;SDS011;21436;52.348;20.928;2024-02-16T01:22:40;23.13;;;13.30;;
35326;SDS011;21436;52.348;20.928;2024-02-16T01:25:08;25.42;;;12.20;;
35326;SDS011;21436;52.348;20.928;2024-02-16T01:27:36;24.20;;;11.48;;
35326;SDS011;21436;52.348;20.928;2024-02-16T01:30:04;23.35;;;11.82;;
35326;SDS011;21436;52.348;20.928;2024-02-16T01:32:33;22.27;;;11.48;;
35326;SDS011;21436;52.348;20.928;2024-02-16T01:35:02;24.92;;;11.48;;
35326;SDS011;21436;52.348;20.928;2024-02-16T01:37:30;22.98;;;11.57;;
35326;SDS011;21436;52.348;20.928;2024-02-16T01:39:58;26.63;;;11.02;;
35326;SDS011;21436;52.348;20.928;2024-02-16T01:42:26;27.17;;;12.23;;
35326;SDS011;21436;52.348;20.928;2024-02-16T01:44:54;24.17;;;10.50;;
35326;SDS011;21436;52.348;20.928;2024-02-16T01:47:22;20.48;;;10.65;;
35326;SDS011;21436;52.348;20.928;2024-02-16T01:49:49;24.13;;;12.23;;
35326;SDS011;21436;52.348;20.928;2024-02-16T01:52:18;20.98;;;11.45;;
35326;SDS011;21436;52.348;20.928;2024-02-16T01:54:48;21.52;;;11.00;;
35326;SDS011;21436;52.348;20.928;2024-02-16T01:57:16;23.13;;;11.02;;
35326;SDS011;21436;52.348;20.928;2024-02-16T01:59:46;18.73;;;10.35;;
35326;SDS011;21436;52.348;20.928;2024-02-16T02:02:14;21.52;;;11.07;;
35326;SDS011;21436;52.348;20.928;2024-02-16T02:04:42;19.02;;;10.45;;
35326;SDS011;21436;52.348;20.928;2024-02-16T02:07:14;20.42;;;10.48;;
35326;SDS011;21436;52.348;20.928;2024-02-16T02:09:42;17.80;;;10.10;;
35326;SDS011;21436;52.348;20.928;2024-02-16T02:12:13;23.85;;;11.65;;
35326;SDS011;21436;52.348;20.928;2024-02-16T02:14:42;21.60;;;10.57;;
35326;SDS011;21436;52.348;20.928;2024-02-16T02:17:09;20.83;;;11.27;;
35326;SDS011;21436;52.348;20.928;2024-02-16T02:19:37;23.52;;;11.95;;
35326;SDS011;21436;52.348;20.928;2024-02-16T02:22:11;20.02;;;10.80;;
35326;SDS011;21436;52.348;20.928;2024-02-16T02:24:48;18.25;;;10.60;;
35326;SDS011;21436;52.348;20.928;2024-02-16T02:27:19;21.23;;;10.95;;
35326;SDS011;21436;52.348;20.928;2024-02-16T02:29:46;27.45;;;13.25;;
35326;SDS011;21436;52.348;20.928;2024-02-16T02:32:16;21.27;;;10.75;;
35326;SDS011;21436;52.348;20.928;2024-02-16T02:34:44;22.45;;;12.05;;
35326;SDS011;21436;52.348;20.928;2024-02-16T02:37:12;27.80;;;12.80;;
35326;SDS011;21436;52.348;20.928;2024-02-16T02:39:39;24.00;;;12.55;;
35326;SDS011;21436;52.348;20.928;2024-02-16T02:42:07;23.27;;;12.00;;
35326;SDS011;21436;52.348;20.928;2024-02-16T02:44:38;23.48;;;13.55;;
35326;SDS011;21436;52.348;20.928;2024-02-16T02:47:06;26.77;;;11.60;;
35326;SDS011;21436;52.348;20.928;2024-02-16T02:49:33;24.98;;;12.45;;
35326;SDS011;21436;52.348;20.928;2024-02-16T02:52:03;29.02;;;12.20;;
35326;SDS011;21436;52.348;20.928;2024-02-16T02:54:31;24.50;;;12.02;;
35326;SDS011;21436;52.348;20.928;2024-02-16T02:56:59;23.23;;;11.95;;
35326;SDS011;21436;52.348;20.928;2024-02-16T02:59:26;24.20;;;12.00;;
35326;SDS011;21436;52.348;20.928;2024-02-16T03:01:54;22.38;;;12.30;;
35326;SDS011;21436;52.348;20.928;2024-02-16T03:04:22;26.13;;;12.25;;
35326;SDS011;21436;52.348;20.928;2024-02-16T03:06:53;26.38;;;11.93;;
35326;SDS011;21436;52.348;20.928;2024-02-16T03:09:22;22.38;;;12.57;;
35326;SDS011;21436;52.348;20.928;2024-02-16T03:11:52;24.67;;;11.30;;
35326;SDS011;21436;52.348;20.928;2024-02-16T03:14:20;25.38;;;12.27;;
35326;SDS011;21436;52.348;20.928;2024-02-16T03:16:48;30.95;;;13.85;;
35326;SDS011;21436;52.348;20.928;2024-02-16T03:19:15;31.17;;;14.05;;
35326;SDS011;21436;52.348;20.928;2024-02-16T03:21:43;28.73;;;13.48;;
35326;SDS011;21436;52.348;20.928;2024-02-16T03:24:11;28.20;;;14.35;;
35326;SDS011;21436;52.348;20.928;2024-02-16T03:26:39;27.42;;;12.68;;
35326;SDS011;21436;52.348;20.928;2024-02-16T03:29:06;24.02;;;11.57;;
35326;SDS011;21436;52.348;20.928;2024-02-16T03:31:35;30.38;;;12.68;;
35326;SDS011;21436;52.348;20.928;2024-02-16T03:34:03;28.10;;;12.50;;
35326;SDS011;21436;52.348;20.928;2024-02-16T03:36:31;28.52;;;12.93;;
35326;SDS011;21436;52.348;20.928;2024-02-16T03:38:59;24.77;;;12.52;;
35326;SDS011;21436;52.348;20.928;2024-02-16T03:41:27;27.65;;;12.57;;
35326;SDS011;21436;52.348;20.928;2024-02-16T03:43:55;36.50;;;15.45;;
35326;SDS011;21436;52.348;20.928;2024-02-16T03:46:24;25.83;;;12.93;;
35326;SDS011;21436;52.348;20.928;2024-02-16T03:48:52;34.17;;;16.58;;
35326;SDS011;21436;52.348;20.928;2024-02-16T03:51:21;32.15;;;15.98;;
35326;SDS011;21436;52.348;20.928;2024-02-16T03:53:49;24.63;;;12.80;;
35326;SDS011;21436;52.348;20.928;2024-02-16T03:56:19;26.70;;;13.15;;
35326;SDS011;21436;52.348;20.928;2024-02-16T03:58:54;23.70;;;12.88;;
35326;SDS011;21436;52.348;20.928;2024-02-16T04:01:40;28.58;;;12.82;;
35326;SDS011;21436;52.348;20.928;2024-02-16T04:04:33;38.97;;;18.02;;
35326;SDS011;21436;52.348;20.928;2024-02-16T04:07:23;31.52;;;14.10;;
35326;SDS011;21436;52.348;20.928;2024-02-16T04:10:09;33.72;;;16.60;;
35326;SDS011;21436;52.348;20.928;2024-02-16T04:12:59;30.13;;;15.07;;
35326;SDS011;21436;52.348;20.928;2024-02-16T04:15:54;25.42;;;14.45;;
35326;SDS011;21436;52.348;20.928;2024-02-16T04:18:33;23.80;;;12.23;;
35326;SDS011;21436;52.348;20.928;2024-02-16T04:21:17;24.33;;;12.82;;
35326;SDS011;21436;52.348;20.928;2024-02-16T04:23:59;28.85;;;13.63;;
35326;SDS011;21436;52.348;20.928;2024-02-16T04:27:02;33.42;;;14.40;;
35326;SDS011;21436;52.348;20.928;2024-02-16T04:29:44;32.72;;;14.40;;
35326;SDS011;21436;52.348;20.928;2024-02-16T04:32:26;30.60;;;15.50;;
35326;SDS011;21436;52.348;20.928;2024-02-16T04:35:22;34.53;;;16.27;;
35326;SDS011;21436;52.348;20.928;2024-02-16T04:38:13;25.92;;;13.60;;
35326;SDS011;21436;52.348;20.928;2024-02-16T04:41:22;25.67;;;13.13;;
35326;SDS011;21436;52.348;20.928;2024-02-16T04:44:12;29.55;;;13.13;;
35326;SDS011;21436;52.348;20.928;2024-02-16T04:46:59;28.60;;;12.75;;
35326;SDS011;21436;52.348;20.928;2024-02-16T04:49:44;29.95;;;13.98;;
35326;SDS011;21436;52.348;20.928;2024-02-16T04:52:26;25.48;;;12.90;;
35326;SDS011;21436;52.348;20.928;2024-02-16T04:55:23;24.40;;;11.85;;
35326;SDS011;21436;52.348;20.928;2024-02-16T04:58:15;30.83;;;14.80;;
35326;SDS011;21436;52.348;20.928;2024-02-16T05:01:04;31.58;;;15.75;;
35326;SDS011;21436;52.348;20.928;2024-02-16T05:03:46;24.40;;;13.57;;
35326;SDS011;21436;52.348;20.928;2024-02-16T05:06:40;28.80;;;13.75;;
35326;SDS011;21436;52.348;20.928;2024-02-16T05:09:47;26.27;;;13.90;;
35326;SDS011;21436;52.348;20.928;2024-02-16T05:12:29;35.83;;;16.10;;
35326;SDS011;21436;52.348;20.928;2024-02-16T05:15:18;30.73;;;14.35;;
35326;SDS011;21436;52.348;20.928;2024-02-16T05:18:07;34.15;;;16.15;;
35326;SDS011;21436;52.348;20.928;2024-02-16T05:21:00;28.75;;;15.10;;
35326;SDS011;21436;52.348;20.928;2024-02-16T05:23:38;29.42;;;12.23;;
35326;SDS011;21436;52.348;20.928;2024-02-16T05:26:25;25.85;;;12.90;;
35326;SDS011;21436;52.348;20.928;2024-02-16T05:29:10;28.67;;;13.55;;
35326;SDS011;21436;52.348;20.928;2024-02-16T05:35:22;27.55;;;12.55;;
35326;SDS011;21436;52.348;20.928;2024-02-16T05:38:25;25.33;;;12.95;;
35326;SDS011;21436;52.348;20.928;2024-02-16T05:41:18;27.42;;;12.82;;
35326;SDS011;21436;52.348;20.928;2024-02-16T05:43:55;25.80;;;12.82;;
35326;SDS011;21436;52.348;20.928;2024-02-16T05:46:45;23.70;;;12.13;;
35326;SDS011;21436;52.348;20.928;2024-02-16T05:49:14;27.38;;;13.85;;
35326;SDS011;21436;52.348;20.928;2024-02-16T05:51:43;28.27;;;13.45;;
35326;SDS011;21436;52.348;20.928;2024-02-16T05:54:31;26.67;;;13.43;;
35326;SDS011;21436;52.348;20.928;2024-02-16T05:57:04;30.15;;;14.55;;
35326;SDS011;21436;52.348;20.928;2024-02-16T05:59:33;29.85;;;15.27;;
35326;SDS011;21436;52.348;20.928;2024-02-16T06:02:01;31.38;;;15.70;;
35326;SDS011;21436;52.348;20.928;2024-02-16T06:04:29;25.48;;;14.05;;
35326;SDS011;21436;52.348;20.928;2024-02-16T06:06:57;36.67;;;15.27;;
35326;SDS011;21436;52.348;20.928;2024-02-16T06:09:26;29.65;;;14.93;;
35326;SDS011;21436;52.348;20.928;2024-02-16T06:11:58;33.30;;;14.48;;
35326;SDS011;21436;52.348;20.928;2024-02-16T06:14:26;29.52;;;14.23;;
35326;SDS011;21436;52.348;20.928;2024-02-16T06:16:54;35.50;;;14.52;;
35326;SDS011;21436;52.348;20.928;2024-02-16T06:19:23;30.73;;;15.32;;
35326;SDS011;21436;52.348;20.928;2024-02-16T06:21:53;31.05;;;14.02;;
35326;SDS011;21436;52.348;20.928;2024-02-16T06:24:22;32.03;;;14.45;;
35326;SDS011;21436;52.348;20.928;2024-02-16T06:26:50;32.67;;;13.82;;
35326;SDS011;21436;52.348;20.928;2024-02-16T06:29:25;32.72;;;14.75;;
35326;SDS011;21436;52.348;20.928;2024-02-16T06:31:53;48.38;;;20.50;;
35326;SDS011;21436;52.348;20.928;2024-02-16T06:34:21;35.25;;;17.25;;
35326;SDS011;21436;52.348;20.928;2024-02-16T06:36:49;35.20;;;15.93;;
35326;SDS011;21436;52.348;20.928;2024-02-16T06:39:18;34.25;;;15.63;;
35326;SDS011;21436;52.348;20.928;2024-02-16T06:41:46;31.83;;;14.57;;
35326;SDS011;21436;52.348;20.928;2024-02-16T06:44:15;27.90;;;14.30;;
35326;SDS011;21436;52.348;20.928;2024-02-16T06:46:47;35.70;;;16.67;;
35326;SDS011;21436;52.348;20.928;2024-02-16T06:49:15;33.90;;;16.45;;
35326;SDS011;21436;52.348;20.928;2024-02-16T06:51:43;37.10;;;17.20;;
35326;SDS011;21436;52.348;20.928;2024-02-16T06:54:13;47.20;;;19.23;;
35326;SDS011;21436;52.348;20.928;2024-02-16T06:56:42;36.45;;;16.13;;
35326;SDS011;21436;52.348;20.928;2024-02-16T06:59:10;32.05;;;15.25;;
35326;SDS011;21436;52.348;20.928;2024-02-16T07:01:38;36.17;;;15.10;;
35326;SDS011;21436;52.348;20.928;2024-02-16T07:04:06;29.77;;;14.82;;
35326;SDS011;21436;52.348;20.928;2024-02-16T07:06:35;27.60;;;14.38;;
35326;SDS011;21436;52.348;20.928;2024-02-16T07:09:11;34.53;;;17.02;;
35326;SDS011;21436;52.348;20.928;2024-02-16T07:11:43;33.72;;;16.45;;
35326;SDS011;21436;52.348;20.928;2024-02-16T07:14:18;32.22;;;15.05;;
35326;SDS011;21436;52.348;20.928;2024-02-16T07:16:46;31.45;;;14.77;;
35326;SDS011;21436;52.348;20.928;2024-02-16T07:19:14;26.95;;;13.75;;
35326;SDS011;21436;52.348;20.928;2024-02-16T07:21:43;26.05;;;14.18;;
35326;SDS011;21436;52.348;20.928;2024-02-16T07:24:12;36.80;;;14.98;;
35326;SDS011;21436;52.348;20.928;2024-02-16T07:26:39;29.73;;;14.15;;
35326;SDS011;21436;52.348;20.928;2024-02-16T07:29:08;29.88;;;14.55;;
35326;SDS011;21436;52.348;20.928;2024-02-16T07:31:35;29.48;;;15.07;;
35326;SDS011;21436;52.348;20.928;2024-02-16T07:34:04;36.22;;;16.05;;
35326;SDS011;21436;52.348;20.928;2024-02-16T07:36:33;33.70;;;15.45;;
35326;SDS011;21436;52.348;20.928;2024-02-16T07:39:02;32.38;;;15.07;;
35326;SDS011;21436;52.348;20.928;2024-02-16T07:41:32;29.73;;;14.13;;
35326;SDS011;21436;52.348;20.928;2024-02-16T07:44:00;27.55;;;13.98;;
35326;SDS011;21436;52.348;20.928;2024-02-16T07:46:28;27.90;;;13.20;;
35326;SDS011;21436;52.348;20.928;2024-02-16T07:48:59;33.42;;;14.40;;
35326;SDS011;21436;52.348;20.928;2024-02-16T07:51:27;30.17;;;14.57;;
35326;SDS011;21436;52.348;20.928;2024-02-16T07:53:55;30.77;;;14.65;;
35326;SDS011;21436;52.348;20.928;2024-02-16T07:56:23;30.63;;;14.88;;
35326;SDS011;21436;52.348;20.928;2024-02-16T07:58:51;30.75;;;14.00;;
35326;SDS011;21436;52.348;20.928;2024-02-16T08:01:20;32.60;;;14.45;;
35326;SDS011;21436;52.348;20.928;2024-02-16T08:03:48;30.90;;;16.60;;
35326;SDS011;21436;52.348;20.928;2024-02-16T08:06:16;31.23;;;14.68;;
35326;SDS011;21436;52.348;20.928;2024-02-16T08:08:49;32.03;;;14.88;;
35326;SDS011;21436;52.348;20.928;2024-02-16T08:11:16;24.88;;;14.02;;
35326;SDS011;21436;52.348;20.928;2024-02-16T08:13:45;29.70;;;14.15;;
35326;SDS011;21436;52.348;20.928;2024-02-16T08:16:14;31.80;;;15.95;;
35326;SDS011;21436;52.348;20.928;2024-02-16T08:18:45;30.48;;;14.93;;
35326;SDS011;21436;52.348;20.928;2024-02-16T08:21:13;35.85;;;15.27;;
35326;SDS011;21436;52.348;20.928;2024-02-16T08:23:41;31.45;;;14.98;;
35326;SDS011;21436;52.348;20.928;2024-02-16T08:26:09;36.70;;;17.25;;
35326;SDS011;21436;52.348;20.928;2024-02-16T08:28:37;37.22;;;16.88;;
35326;SDS011;21436;52.348;20.928;2024-02-16T08:31:06;26.13;;;14.05;;
35326;SDS011;21436;52.348;20.928;2024-02-16T08:33:34;31.90;;;14.18;;
35326;SDS011;21436;52.348;20.928;2024-02-16T08:36:04;30.80;;;13.80;;
35326;SDS011;21436;52.348;20.928;2024-02-16T08:38:36;29.02;;;13.80;;
35326;SDS011;21436;52.348;20.928;2024-02-16T08:41:04;33.45;;;14.70;;
35326;SDS011;21436;52.348;20.928;2024-02-16T08:43:32;29.00;;;14.55;;
35326;SDS011;21436;52.348;20.928;2024-02-16T08:46:00;27.83;;;13.68;;
35326;SDS011;21436;52.348;20.928;2024-02-16T08:48:28;30.75;;;13.88;;
35326;SDS011;21436;52.348;20.928;2024-02-16T08:50:56;33.22;;;14.95;;
35326;SDS011;21436;52.348;20.928;2024-02-16T08:53:24;29.25;;;14.10;;
35326;SDS011;21436;52.348;20.928;2024-02-16T08:55:52;32.47;;;14.98;;
35326;SDS011;21436;52.348;20.928;2024-02-16T08:58:20;28.73;;;13.80;;
35326;SDS011;21436;52.348;20.928;2024-02-16T09:00:48;25.52;;;12.68;;
35326;SDS011;21436;52.348;20.928;2024-02-16T09:03:18;30.70;;;13.90;;
35326;SDS011;21436;52.348;20.928;2024-02-16T09:05:46;25.88;;;13.48;;
35326;SDS011;21436;52.348;20.928;2024-02-16T09:08:15;28.27;;;13.73;;
35326;SDS011;21436;52.348;20.928;2024-02-16T09:10:44;29.45;;;13.43;;
35326;SDS011;21436;52.348;20.928;2024-02-16T09:13:13;28.80;;;12.73;;
35326;SDS011;21436;52.348;20.928;2024-02-16T09:15:40;29.30;;;13.40;;
35326;SDS011;21436;52.348;20.928;2024-02-16T09:18:11;24.60;;;12.07;;
35326;SDS011;21436;52.348;20.928;2024-02-16T09:20:40;29.77;;;13.48;;
35326;SDS011;21436;52.348;20.928;2024-02-16T09:23:09;26.95;;;13.60;;
35326;SDS011;21436;52.348;20.928;2024-02-16T09:25:37;28.17;;;12.48;;
35326;SDS011;21436;52.348;20.928;2024-02-16T09:28:05;27.17;;;12.85;;
35326;SDS011;21436;52.348;20.928;2024-02-16T09:30:42;24.05;;;13.02;;
35326;SDS011;21436;52.348;20.928;2024-02-16T09:33:11;26.25;;;13.32;;
35326;SDS011;21436;52.348;20.928;2024-02-16T09:35:39;31.05;;;13.35;;
35326;SDS011;21436;52.348;20.928;2024-02-16T09:38:07;24.58;;;12.98;;
35326;SDS011;21436;52.348;20.928;2024-02-16T09:40:37;24.00;;;11.85;;
35326;SDS011;21436;52.348;20.928;2024-02-16T09:43:06;26.33;;;12.80;;
35326;SDS011;21436;52.348;20.928;2024-02-16T09:45:34;22.08;;;12.45;;
35326;SDS011;21436;52.348;20.928;2024-02-16T09:48:02;21.52;;;11.93;;
35326;SDS011;21436;52.348;20.928;2024-02-16T09:50:34;28.77;;;13.18;;
35326;SDS011;21436;52.348;20.928;2024-02-16T09:53:02;29.70;;;14.15;;
35326;SDS011;21436;52.348;20.928;2024-02-16T09:55:32;21.88;;;11.68;;
35326;SDS011;21436;52.348;20.928;2024-02-16T09:58:03;23.05;;;11.80;;
35326;SDS011;21436;52.348;20.928;2024-02-16T10:00:32;26.95;;;12.10;;
35326;SDS011;21436;52.348;20.928;2024-02-16T10:03:01;32.42;;;12.10;;
35326;SDS011;21436;52.348;20.928;2024-02-16T10:05:29;22.92;;;11.43;;
35326;SDS011;21436;52.348;20.928;2024-02-16T10:07:58;25.05;;;12.10;;
35326;SDS011;21436;52.348;20.928;2024-02-16T10:10:27;22.60;;;11.40;;
35326;SDS011;21436;52.348;20.928;2024-02-16T10:13:03;25.58;;;11.95;;
35326;SDS011;21436;52.348;20.928;2024-02-16T10:15:32;20.98;;;12.00;;
35326;SDS011;21436;52.348;20.928;2024-02-16T10:18:01;21.45;;;10.85;;
35326;SDS011;21436;52.348;20.928;2024-02-16T10:20:31;25.98;;;12.20;;
35326;SDS011;21436;52.348;20.928;2024-02-16T10:23:05;21.88;;;10.60;;
35326;SDS011;21436;52.348;20.928;2024-02-16T10:25:40;28.23;;;11.10;;
35326;SDS011;21436;52.348;20.928;2024-02-16T10:28:09;24.23;;;11.15;;
35326;SDS011;21436;52.348;20.928;2024-02-16T10:30:41;24.88;;;13.40;;
35326;SDS011;21436;52.348;20.928;2024-02-16T10:33:13;34.60;;;14.50;;
35326;SDS011;21436;52.348;20.928;2024-02-16T10:35:41;21.60;;;10.88;;
35326;SDS011;21436;52.348;20.928;2024-02-16T10:38:11;20.05;;;10.77;;
35326;SDS011;21436;52.348;20.928;2024-02-16T10:40:41;22.58;;;11.30;;
35326;SDS011;21436;52.348;20.928;2024-02-16T10:43:10;22.63;;;12.35;;
35326;SDS011;21436;52.348;20.928;2024-02-16T10:45:39;20.38;;;10.02;;
35326;SDS011;21436;52.348;20.928;2024-02-16T10:48:08;18.80;;;10.23;;
35326;SDS011;21436;52.348;20.928;2024-02-16T10:50:41;23.30;;;11.05;;
35326;SDS011;21436;52.348;20.928;2024-02-16T10:53:16;23.35;;;10.73;;
35326;SDS011;21436;52.348;20.928;2024-02-16T10:55:48;22.70;;;10.48;;
35326;SDS011;21436;52.348;20.928;2024-02-16T10:58:17;22.02;;;11.48;;
35326;SDS011;21436;52.348;20.928;2024-02-16T11:00:53;21.50;;;10.65;;
35326;SDS011;21436;52.348;20.928;2024-02-16T11:03:24;22.25;;;10.80;;
35326;SDS011;21436;52.348;20.928;2024-02-16T11:05:54;23.63;;;11.77;;
35326;SDS011;21436;52.348;20.928;2024-02-16T11:08:26;20.63;;;11.15;;
35326;SDS011;21436;52.348;20.928;2024-02-16T11:13:32;19.40;;;10.73;;
35326;SDS011;21436;52.348;20.928;2024-02-16T11:16:08;21.20;;;11.77;;
35326;SDS011;21436;52.348;20.928;2024-02-16T11:18:38;20.60;;;10.95;;
35326;SDS011;21436;52.348;20.928;2024-02-16T11:21:07;27.83;;;12.77;;
35326;SDS011;21436;52.348;20.928;2024-02-16T11:23:39;20.92;;;11.15;;
35326;SDS011;21436;52.348;20.928;2024-02-16T11:26:11;21.73;;;11.63;;
35326;SDS011;21436;52.348;20.928;2024-02-16T11:28:41;25.63;;;12.60;;
35326;SDS011;21436;52.348;20.928;2024-02-16T11:31:09;30.33;;;12.95;;
35326;SDS011;21436;52.348;20.928;2024-02-16T11:33:43;20.58;;;10.30;;
35326;SDS011;21436;52.348;20.928;2024-02-16T11:36:13;25.85;;;12.48;;
35326;SDS011;21436;52.348;20.928;2024-02-16T11:38:41;25.73;;;11.40;;
35326;SDS011;21436;52.348;20.928;2024-02-16T11:41:09;23.63;;;11.23;;
35326;SDS011;21436;52.348;20.928;2024-02-16T11:43:37;31.42;;;12.55;;
35326;SDS011;21436;52.348;20.928;2024-02-16T11:46:11;20.35;;;11.77;;
35326;SDS011;21436;52.348;20.928;2024-02-16T11:48:41;21.77;;;12.77;;
35326;SDS011;21436;52.348;20.928;2024-02-16T11:51:09;26.83;;;13.60;;
35326;SDS011;21436;52.348;20.928;2024-02-16T11:53:37;26.70;;;12.35;;
35326;SDS011;21436;52.348;20.928;2024-02-16T11:56:05;23.75;;;11.57;;
35326;SDS011;21436;52.348;20.928;2024-02-16T11:58:34;28.45;;;14.90;;
35326;SDS011;21436;52.348;20.928;2024-02-16T12:01:04;27.08;;;13.82;;
35326;SDS011;21436;52.348;20.928;2024-02-16T12:03:40;26.23;;;13.27;;
35326;SDS011;21436;52.348;20.928;2024-02-16T12:06:20;24.70;;;12.90;;
35326;SDS011;21436;52.348;20.928;2024-02-16T12:08:52;25.65;;;12.88;;
35326;SDS011;21436;52.348;20.928;2024-02-16T12:11:23;25.48;;;13.20;;
35326;SDS011;21436;52.348;20.928;2024-02-16T12:13:52;33.20;;;13.55;;
35326;SDS011;21436;52.348;20.928;2024-02-16T12:16:20;26.10;;;13.32;;
35326;SDS011;21436;52.348;20.928;2024-02-16T12:18:49;26.52;;;12.68;;
35326;SDS011;21436;52.348;20.928;2024-02-16T12:21:17;26.20;;;13.57;;
35326;SDS011;21436;52.348;20.928;2024-02-16T12:23:47;24.92;;;12.10;;
35326;SDS011;21436;52.348;20.928;2024-02-16T12:26:15;20.35;;;12.60;;
35326;SDS011;21436;52.348;20.928;2024-02-16T12:28:44;28.15;;;12.73;;
35326;SDS011;21436;52.348;20.928;2024-02-16T12:31:17;24.08;;;12.38;;
35326;SDS011;21436;52.348;20.928;2024-02-16T12:33:51;27.60;;;12.90;;
35326;SDS011;21436;52.348;20.928;2024-02-16T12:36:20;22.33;;;12.30;;
35326;SDS011;21436;52.348;20.928;2024-02-16T12:38:52;29.38;;;13.10;;
35326;SDS011;21436;52.348;20.928;2024-02-16T12:41:20;27.00;;;12.48;;
35326;SDS011;21436;52.348;20.928;2024-02-16T12:43:49;25.30;;;13.32;;
35326;SDS011;21436;52.348;20.928;2024-02-16T12:46:17;22.35;;;11.65;;
35326;SDS011;21436;52.348;20.928;2024-02-16T12:48:47;22.00;;;13.10;;
35326;SDS011;21436;52.348;20.928;2024-02-16T12:51:16;19.80;;;11.90;;
35326;SDS011;21436;52.348;20.928;2024-02-16T12:53:45;22.40;;;12.30;;
35326;SDS011;21436;52.348;20.928;2024-02-16T12:56:13;26.63;;;13.68;;
35326;SDS011;21436;52.348;20.928;2024-02-16T12:58:41;31.50;;;14.82;;
35326;SDS011;21436;52.348;20.928;2024-02-16T13:01:09;23.60;;;12.13;;
35326;SDS011;21436;52.348;20.928;2024-02-16T13:03:52;28.33;;;12.50;;
35326;SDS011;21436;52.348;20.928;2024-02-16T13:06:20;30.58;;;12.90;;
35326;SDS011;21436;52.348;20.928;2024-02-16T13:08:54;24.15;;;11.75;;
35326;SDS011;21436;52.348;20.928;2024-02-16T13:11:22;21.90;;;12.35;;
35326;SDS011;21436;52.348;20.928;2024-02-16T13:13:51;22.90;;;11.98;;
35326;SDS011;21436;52.348;20.928;2024-02-16T13:16:18;21.30;;;12.68;;
35326;SDS011;21436;52.348;20.928;2024-02-16T13:18:47;21.27;;;11.48;;
35326;SDS011;21436;52.348;20.928;2024-02-16T13:21:16;24.15;;;12.13;;
35326;SDS011;21436;52.348;20.928;2024-02-16T13:23:44;24.98;;;12.48;;
35326;SDS011;21436;52.348;20.928;2024-02-16T13:26:12;22.77;;;10.98;;
35326;SDS011;21436;52.348;20.928;2024-02-16T13:28:41;21.80;;;11.10;;
35326;SDS011;21436;52.348;20.928;2024-02-16T13:31:09;22.08;;;11.93;;
35326;SDS011;21436;52.348;20.928;2024-02-16T13:33:39;22.15;;;11.93;;
35326;SDS011;21436;52.348;20.928;2024-02-16T13:36:06;20.60;;;10.68;;
35326;SDS011;21436;52.348;20.928;2024-02-16T13:38:35;22.05;;;11.90;;
35326;SDS011;21436;52.348;20.928;2024-02-16T13:41:03;22.45;;;11.73;;
35326;SDS011;21436;52.348;20.928;2024-02-16T13:43:32;28.45;;;12.32;;
35326;SDS011;21436;52.348;20.928;2024-02-16T13:46:00;21.50;;;11.27;;
35326;SDS011;21436;52.348;20.928;2024-02-16T13:48:28;25.27;;;13.05;;
35326;SDS011;21436;52.348;20.928;2024-02-16T13:50:58;22.80;;;12.25;;
35326;SDS011;21436;52.348;20.928;2024-02-16T13:53:28;25.23;;;12.30;;
35326;SDS011;21436;52.348;20.928;2024-02-16T13:55:56;21.95;;;12.38;;
35326;SDS011;21436;52.348;20.928;2024-02-16T13:58:28;23.27;;;11.87;;
35326;SDS011;21436;52.348;20.928;2024-02-16T14:00:56;18.20;;;11.48;;
35326;SDS011;21436;52.348;20.928;2024-02-16T14:03:26;21.80;;;11.60;;
35326;SDS011;21436;52.348;20.928;2024-02-16T14:05:54;20.33;;;11.52;;
35326;SDS011;21436;52.348;20.928;2024-02-16T14:08:22;23.10;;;12.25;;
35326;SDS011;21436;52.348;20.928;2024-02-16T14:10:50;20.27;;;11.80;;
35326;SDS011;21436;52.348;20.928;2024-02-16T14:13:18;28.05;;;13.13;;
35326;SDS011;21436;52.348;20.928;2024-02-16T14:15:47;26.08;;;12.50;;
35326;SDS011;21436;52.348;20.928;2024-02-16T14:18:15;23.90;;;11.75;;
35326;SDS011;21436;52.348;20.928;2024-02-16T14:20:56;18.48;;;10.93;;
35326;SDS011;21436;52.348;20.928;2024-02-16T14:23:24;21.98;;;12.35;;
35326;SDS011;21436;52.348;20.928;2024-02-16T14:25:52;22.65;;;11.43;;
35326;SDS011;21436;52.348;20.928;2024-02-16T14:28:20;27.70;;;12.23;;
35326;SDS011;21436;52.348;20.928;2024-02-16T14:30:48;19.88;;;11.25;;
35326;SDS011;21436;52.348;20.928;2024-02-16T14:33:16;25.50;;;12.23;;
35326;SDS011;21436;52.348;20.928;2024-02-16T14:35:52;23.52;;;11.60;;
35326;SDS011;21436;52.348;20.928;2024-02-16T14:38:20;33.55;;;13.00;;
35326;SDS011;21436;52.348;20.928;2024-02-16T14:40:48;22.00;;;10.90;;